Ana Sayfa
METAR-TAF:

METAR-TAF

Havaalanları :

Tekirdağ Çorlu Havalimanı

Çorlu, Türkiye

Enlem: 41-08N, Boylam: 027-55E, yükseklik: 173 m

Güncel hava durumu gözlemi

Rapor saat 17:20 UTC de 37 dakika önce yapıldı.
Rüzgar kuzeydan 13 kt
Sıcaklık 25°C
Nem 79%
Basınç 1012 hPa
Görüş mesafesi 10 km veya daha fazla
1500 m altında bulut yok ve kümülonimbus yok

METAR: LTBU 181720Z 35013KT CAVOK 25/21 Q1012 RMK RWY23 02013KT

Saat: 20:57 (17:57 UTC)

Tahmin

Rapor saat 16:40 UTC de 1 saat ve 17 dakika önce yapıldı.
Ayın 18'si saat 18 UTC'den ayın 19'si saat 18 UTC'ye kadar geçerli Tahmin
Rüzgar kuzey/kuzeydoğudan 13 kt
Görüş mesafesi 10 km veya daha fazla
1500 m altında bulut yok ve kümülonimbus yok
Dönüşüyor
ayın 19'si saat 06 UTC'den ayın 19'si saat 09 UTC'ye kadar
Rüzgar kuzey/kuzeydoğudan 15 kt ve 30 kt'a kadar ani rüzgarlar
3000 ft yükseklikte parçalı bulutlu

TAF: LTBU 181640Z 1818/1918 03013KT CAVOK BECMG 1906/1909 03015G30KT SCT030

4.000'den fazla havaalanı için hava durumu gözlemleri ve tahminleri (METAR ve TAF raporları).

Kullanılabilir istasyonlar harita üzerinde sarı ve kırmızı noktalarla gösterilir.

İstasyonun adını görmek için fareyi noktanın üzerinde gezdirin.

Sonrasında hava gözlem ve tahminlerini görmek için tıklayın.

Haritayı değiştirmek için: yaklaştırmak için siyah artı işaretli yeşil düğmeye ve uzaklaştırmak için de eksi işaretli düğmeye hızla tıklayın; bitişik haritalar için yeşil okları kullanın.


METAR-TAF: